sensor_id;sensor_type;location;lat;lon;timestamp;P1;durP1;ratioP1;P2;durP2;ratioP2
60336;SDS011;46978;50.288;28.624;2022-10-17T00:00:34;20.34;;;12.31;;
60336;SDS011;46978;50.288;28.624;2022-10-17T00:01:35;20.55;;;12.61;;
60336;SDS011;46978;50.288;28.624;2022-10-17T00:02:37;20.52;;;11.60;;
60336;SDS011;46978;50.288;28.624;2022-10-17T00:03:39;19.27;;;12.09;;
60336;SDS011;46978;50.288;28.624;2022-10-17T00:04:41;20.25;;;11.66;;
60336;SDS011;46978;50.288;28.624;2022-10-17T00:05:44;19.59;;;12.32;;
60336;SDS011;46978;50.288;28.624;2022-10-17T00:06:47;20.42;;;11.96;;
60336;SDS011;46978;50.288;28.624;2022-10-17T00:07:49;19.67;;;11.89;;
60336;SDS011;46978;50.288;28.624;2022-10-17T00:08:51;21.55;;;12.71;;
60336;SDS011;46978;50.288;28.624;2022-10-17T00:09:53;21.30;;;11.64;;
60336;SDS011;46978;50.288;28.624;2022-10-17T00:10:56;18.97;;;12.03;;
60336;SDS011;46978;50.288;28.624;2022-10-17T00:11:59;19.52;;;11.81;;
60336;SDS011;46978;50.288;28.624;2022-10-17T00:13:01;19.68;;;12.05;;
60336;SDS011;46978;50.288;28.624;2022-10-17T00:14:03;20.80;;;11.90;;
60336;SDS011;46978;50.288;28.624;2022-10-17T00:15:05;19.95;;;11.24;;
60336;SDS011;46978;50.288;28.624;2022-10-17T00:16:08;21.23;;;12.08;;
60336;SDS011;46978;50.288;28.624;2022-10-17T00:17:10;21.90;;;11.79;;
60336;SDS011;46978;50.288;28.624;2022-10-17T00:18:12;21.99;;;11.92;;
60336;SDS011;46978;50.288;28.624;2022-10-17T00:19:14;18.14;;;12.08;;
60336;SDS011;46978;50.288;28.624;2022-10-17T00:20:15;21.04;;;12.11;;
60336;SDS011;46978;50.288;28.624;2022-10-17T00:21:18;21.11;;;11.79;;
60336;SDS011;46978;50.288;28.624;2022-10-17T00:22:20;20.57;;;11.61;;
60336;SDS011;46978;50.288;28.624;2022-10-17T00:23:22;18.59;;;11.41;;
60336;SDS011;46978;50.288;28.624;2022-10-17T00:24:24;21.59;;;12.11;;
60336;SDS011;46978;50.288;28.624;2022-10-17T00:25:25;24.64;;;12.01;;
60336;SDS011;46978;50.288;28.624;2022-10-17T00:26:27;22.03;;;12.07;;
60336;SDS011;46978;50.288;28.624;2022-10-17T00:27:29;21.39;;;11.90;;
60336;SDS011;46978;50.288;28.624;2022-10-17T00:28:31;20.25;;;11.73;;
60336;SDS011;46978;50.288;28.624;2022-10-17T00:29:33;20.72;;;11.97;;
60336;SDS011;46978;50.288;28.624;2022-10-17T00:30:35;20.36;;;12.61;;
60336;SDS011;46978;50.288;28.624;2022-10-17T00:31:37;20.33;;;11.87;;
60336;SDS011;46978;50.288;28.624;2022-10-17T00:32:39;25.63;;;12.07;;
60336;SDS011;46978;50.288;28.624;2022-10-17T00:33:41;20.69;;;11.89;;
60336;SDS011;46978;50.288;28.624;2022-10-17T00:34:42;22.37;;;12.48;;
60336;SDS011;46978;50.288;28.624;2022-10-17T00:35:44;24.43;;;12.93;;
60336;SDS011;46978;50.288;28.624;2022-10-17T00:36:46;21.28;;;13.06;;
60336;SDS011;46978;50.288;28.624;2022-10-17T00:37:47;19.45;;;11.93;;
60336;SDS011;46978;50.288;28.624;2022-10-17T00:38:54;19.70;;;11.72;;
60336;SDS011;46978;50.288;28.624;2022-10-17T00:39:54;21.47;;;12.49;;
60336;SDS011;46978;50.288;28.624;2022-10-17T00:40:56;18.84;;;12.45;;
60336;SDS011;46978;50.288;28.624;2022-10-17T00:41:58;21.15;;;11.97;;
60336;SDS011;46978;50.288;28.624;2022-10-17T00:43:00;19.46;;;11.37;;
60336;SDS011;46978;50.288;28.624;2022-10-17T00:44:03;21.94;;;12.45;;
60336;SDS011;46978;50.288;28.624;2022-10-17T00:45:26;19.46;;;11.88;;
60336;SDS011;46978;50.288;28.624;2022-10-17T00:46:30;19.17;;;11.88;;
60336;SDS011;46978;50.288;28.624;2022-10-17T00:47:35;21.07;;;12.50;;
60336;SDS011;46978;50.288;28.624;2022-10-17T00:48:37;20.42;;;12.07;;
60336;SDS011;46978;50.288;28.624;2022-10-17T00:49:39;22.36;;;12.80;;
60336;SDS011;46978;50.288;28.624;2022-10-17T00:50:41;21.31;;;12.99;;
60336;SDS011;46978;50.288;28.624;2022-10-17T00:51:56;20.17;;;12.24;;
60336;SDS011;46978;50.288;28.624;2022-10-17T00:53:00;23.41;;;12.43;;
60336;SDS011;46978;50.288;28.624;2022-10-17T00:54:05;20.20;;;12.31;;
60336;SDS011;46978;50.288;28.624;2022-10-17T00:55:09;24.27;;;12.83;;
60336;SDS011;46978;50.288;28.624;2022-10-17T00:56:13;22.87;;;12.61;;
60336;SDS011;46978;50.288;28.624;2022-10-17T00:57:16;19.01;;;12.14;;
60336;SDS011;46978;50.288;28.624;2022-10-17T00:58:18;21.70;;;12.24;;
60336;SDS011;46978;50.288;28.624;2022-10-17T00:59:21;19.16;;;11.90;;
60336;SDS011;46978;50.288;28.624;2022-10-17T01:00:24;19.92;;;12.60;;
60336;SDS011;46978;50.288;28.624;2022-10-17T01:01:27;22.39;;;12.39;;
60336;SDS011;46978;50.288;28.624;2022-10-17T01:02:28;19.82;;;12.34;;
60336;SDS011;46978;50.288;28.624;2022-10-17T01:03:30;20.91;;;11.79;;
60336;SDS011;46978;50.288;28.624;2022-10-17T01:04:32;19.95;;;12.11;;
60336;SDS011;46978;50.288;28.624;2022-10-17T01:05:34;20.65;;;12.02;;
60336;SDS011;46978;50.288;28.624;2022-10-17T01:06:37;20.96;;;12.09;;
60336;SDS011;46978;50.288;28.624;2022-10-17T01:07:39;23.66;;;12.85;;
60336;SDS011;46978;50.288;28.624;2022-10-17T01:08:42;22.14;;;12.80;;
60336;SDS011;46978;50.288;28.624;2022-10-17T01:09:44;20.91;;;12.16;;
60336;SDS011;46978;50.288;28.624;2022-10-17T01:12:06;20.33;;;11.73;;
60336;SDS011;46978;50.288;28.624;2022-10-17T01:13:32;20.84;;;12.19;;
60336;SDS011;46978;50.288;28.624;2022-10-17T01:21:24;21.63;;;12.51;;
60336;SDS011;46978;50.288;28.624;2022-10-17T01:21:28;19.32;;;12.36;;
60336;SDS011;46978;50.288;28.624;2022-10-17T01:22:32;22.87;;;12.83;;
60336;SDS011;46978;50.288;28.624;2022-10-17T01:26:36;22.15;;;11.84;;
60336;SDS011;46978;50.288;28.624;2022-10-17T01:28:00;21.76;;;12.10;;
60336;SDS011;46978;50.288;28.624;2022-10-17T01:29:24;21.03;;;12.54;;
60336;SDS011;46978;50.288;28.624;2022-10-17T01:31:51;22.70;;;12.28;;
60336;SDS011;46978;50.288;28.624;2022-10-17T01:32:56;22.96;;;12.69;;
60336;SDS011;46978;50.288;28.624;2022-10-17T01:34:13;21.29;;;12.77;;
60336;SDS011;46978;50.288;28.624;2022-10-17T01:35:37;21.32;;;12.43;;
60336;SDS011;46978;50.288;28.624;2022-10-17T01:37:58;20.75;;;12.19;;
60336;SDS011;46978;50.288;28.624;2022-10-17T01:39:03;21.01;;;12.93;;
60336;SDS011;46978;50.288;28.624;2022-10-17T01:40:26;21.79;;;12.81;;
60336;SDS011;46978;50.288;28.624;2022-10-17T01:41:33;24.64;;;12.56;;
60336;SDS011;46978;50.288;28.624;2022-10-17T01:42:52;25.10;;;12.92;;
60336;SDS011;46978;50.288;28.624;2022-10-17T01:43:58;20.78;;;12.67;;
60336;SDS011;46978;50.288;28.624;2022-10-17T01:45:06;21.24;;;12.72;;
60336;SDS011;46978;50.288;28.624;2022-10-17T01:46:19;21.62;;;12.86;;
60336;SDS011;46978;50.288;28.624;2022-10-17T01:47:19;20.66;;;12.52;;
60336;SDS011;46978;50.288;28.624;2022-10-17T01:48:24;24.02;;;13.23;;
60336;SDS011;46978;50.288;28.624;2022-10-17T01:49:29;20.98;;;12.43;;
60336;SDS011;46978;50.288;28.624;2022-10-17T01:50:35;20.67;;;12.94;;
60336;SDS011;46978;50.288;28.624;2022-10-17T01:51:42;24.06;;;12.98;;
60336;SDS011;46978;50.288;28.624;2022-10-17T01:52:51;20.58;;;12.63;;
60336;SDS011;46978;50.288;28.624;2022-10-17T01:54:02;20.13;;;13.04;;
60336;SDS011;46978;50.288;28.624;2022-10-17T01:55:14;22.59;;;12.47;;
60336;SDS011;46978;50.288;28.624;2022-10-17T01:56:21;23.61;;;13.82;;
60336;SDS011;46978;50.288;28.624;2022-10-17T01:57:36;20.45;;;12.31;;
60336;SDS011;46978;50.288;28.624;2022-10-17T01:58:42;22.83;;;12.94;;
60336;SDS011;46978;50.288;28.624;2022-10-17T01:59:46;22.71;;;13.77;;
60336;SDS011;46978;50.288;28.624;2022-10-17T02:00:51;22.16;;;13.50;;
60336;SDS011;46978;50.288;28.624;2022-10-17T02:01:54;22.63;;;13.72;;
60336;SDS011;46978;50.288;28.624;2022-10-17T02:02:59;23.34;;;13.41;;
60336;SDS011;46978;50.288;28.624;2022-10-17T02:04:04;24.03;;;13.44;;
60336;SDS011;46978;50.288;28.624;2022-10-17T02:05:09;22.23;;;13.13;;
60336;SDS011;46978;50.288;28.624;2022-10-17T02:06:12;22.27;;;12.89;;
60336;SDS011;46978;50.288;28.624;2022-10-17T02:07:13;23.66;;;13.13;;
60336;SDS011;46978;50.288;28.624;2022-10-17T02:08:38;21.01;;;12.79;;
60336;SDS011;46978;50.288;28.624;2022-10-17T02:09:29;25.13;;;13.24;;
60336;SDS011;46978;50.288;28.624;2022-10-17T02:11:42;23.58;;;13.47;;
60336;SDS011;46978;50.288;28.624;2022-10-17T02:12:49;22.66;;;12.95;;
60336;SDS011;46978;50.288;28.624;2022-10-17T02:15:53;21.94;;;12.46;;
60336;SDS011;46978;50.288;28.624;2022-10-17T02:16:46;24.17;;;14.04;;
60336;SDS011;46978;50.288;28.624;2022-10-17T02:17:59;24.28;;;13.13;;
60336;SDS011;46978;50.288;28.624;2022-10-17T02:20:34;20.84;;;12.83;;
60336;SDS011;46978;50.288;28.624;2022-10-17T02:22:54;21.74;;;12.84;;
60336;SDS011;46978;50.288;28.624;2022-10-17T02:25:47;22.87;;;13.13;;
60336;SDS011;46978;50.288;28.624;2022-10-17T02:28:20;22.97;;;13.51;;
60336;SDS011;46978;50.288;28.624;2022-10-17T02:29:27;21.36;;;12.49;;
60336;SDS011;46978;50.288;28.624;2022-10-17T02:30:44;23.09;;;13.33;;
60336;SDS011;46978;50.288;28.624;2022-10-17T02:31:50;23.03;;;13.98;;
60336;SDS011;46978;50.288;28.624;2022-10-17T02:34:11;24.25;;;13.74;;
60336;SDS011;46978;50.288;28.624;2022-10-17T02:35:11;23.73;;;13.51;;
60336;SDS011;46978;50.288;28.624;2022-10-17T02:36:18;22.82;;;13.14;;
60336;SDS011;46978;50.288;28.624;2022-10-17T02:37:22;22.09;;;12.60;;
60336;SDS011;46978;50.288;28.624;2022-10-17T02:38:26;22.11;;;13.17;;
60336;SDS011;46978;50.288;28.624;2022-10-17T02:39:30;23.05;;;13.49;;
60336;SDS011;46978;50.288;28.624;2022-10-17T02:40:34;26.06;;;13.44;;
60336;SDS011;46978;50.288;28.624;2022-10-17T02:41:37;23.11;;;13.22;;
60336;SDS011;46978;50.288;28.624;2022-10-17T02:42:41;23.75;;;13.29;;
60336;SDS011;46978;50.288;28.624;2022-10-17T02:43:46;22.68;;;13.33;;
60336;SDS011;46978;50.288;28.624;2022-10-17T02:44:50;24.49;;;13.27;;
60336;SDS011;46978;50.288;28.624;2022-10-17T02:45:55;22.35;;;12.80;;
60336;SDS011;46978;50.288;28.624;2022-10-17T02:47:04;22.94;;;13.12;;
60336;SDS011;46978;50.288;28.624;2022-10-17T02:48:29;23.00;;;13.63;;
60336;SDS011;46978;50.288;28.624;2022-10-17T02:49:30;22.13;;;12.60;;
60336;SDS011;46978;50.288;28.624;2022-10-17T02:50:42;20.63;;;12.67;;
60336;SDS011;46978;50.288;28.624;2022-10-17T02:52:55;22.38;;;12.58;;
60336;SDS011;46978;50.288;28.624;2022-10-17T02:54:04;23.81;;;12.32;;
60336;SDS011;46978;50.288;28.624;2022-10-17T02:55:18;19.82;;;12.72;;
60336;SDS011;46978;50.288;28.624;2022-10-17T02:56:23;22.47;;;12.61;;
60336;SDS011;46978;50.288;28.624;2022-10-17T02:57:35;20.78;;;12.71;;
60336;SDS011;46978;50.288;28.624;2022-10-17T02:58:39;20.97;;;12.53;;
60336;SDS011;46978;50.288;28.624;2022-10-17T02:59:43;21.04;;;12.63;;
60336;SDS011;46978;50.288;28.624;2022-10-17T03:00:47;20.34;;;13.09;;
60336;SDS011;46978;50.288;28.624;2022-10-17T03:01:49;22.03;;;12.27;;
60336;SDS011;46978;50.288;28.624;2022-10-17T03:02:53;22.14;;;12.36;;
60336;SDS011;46978;50.288;28.624;2022-10-17T03:04:09;21.41;;;12.28;;
60336;SDS011;46978;50.288;28.624;2022-10-17T03:05:10;22.74;;;11.83;;
60336;SDS011;46978;50.288;28.624;2022-10-17T03:06:14;21.15;;;12.39;;
60336;SDS011;46978;50.288;28.624;2022-10-17T03:07:16;22.31;;;12.37;;
60336;SDS011;46978;50.288;28.624;2022-10-17T03:08:18;22.78;;;12.31;;
60336;SDS011;46978;50.288;28.624;2022-10-17T03:09:20;20.09;;;11.45;;
60336;SDS011;46978;50.288;28.624;2022-10-17T03:10:22;19.39;;;12.01;;
60336;SDS011;46978;50.288;28.624;2022-10-17T03:11:23;23.05;;;13.03;;
60336;SDS011;46978;50.288;28.624;2022-10-17T03:12:25;25.30;;;12.39;;
60336;SDS011;46978;50.288;28.624;2022-10-17T03:13:28;17.96;;;11.67;;
60336;SDS011;46978;50.288;28.624;2022-10-17T03:14:30;20.58;;;12.19;;
60336;SDS011;46978;50.288;28.624;2022-10-17T03:15:31;22.87;;;13.01;;
60336;SDS011;46978;50.288;28.624;2022-10-17T03:16:33;19.51;;;12.11;;
60336;SDS011;46978;50.288;28.624;2022-10-17T03:17:35;21.96;;;12.18;;
60336;SDS011;46978;50.288;28.624;2022-10-17T03:18:37;20.97;;;12.07;;
60336;SDS011;46978;50.288;28.624;2022-10-17T03:19:38;22.85;;;13.06;;
60336;SDS011;46978;50.288;28.624;2022-10-17T03:20:40;22.06;;;13.07;;
60336;SDS011;46978;50.288;28.624;2022-10-17T03:21:41;25.47;;;13.16;;
60336;SDS011;46978;50.288;28.624;2022-10-17T03:22:43;18.84;;;12.28;;
60336;SDS011;46978;50.288;28.624;2022-10-17T03:23:45;20.65;;;12.75;;
60336;SDS011;46978;50.288;28.624;2022-10-17T03:24:47;22.30;;;12.41;;
60336;SDS011;46978;50.288;28.624;2022-10-17T03:25:48;21.54;;;12.38;;
60336;SDS011;46978;50.288;28.624;2022-10-17T03:26:50;21.67;;;12.55;;
60336;SDS011;46978;50.288;28.624;2022-10-17T03:27:52;18.64;;;11.72;;
60336;SDS011;46978;50.288;28.624;2022-10-17T03:28:54;17.87;;;11.70;;
60336;SDS011;46978;50.288;28.624;2022-10-17T03:29:56;21.91;;;11.87;;
60336;SDS011;46978;50.288;28.624;2022-10-17T03:30:58;19.56;;;12.06;;
60336;SDS011;46978;50.288;28.624;2022-10-17T03:32:00;21.67;;;13.13;;
60336;SDS011;46978;50.288;28.624;2022-10-17T03:33:01;21.09;;;12.22;;
60336;SDS011;46978;50.288;28.624;2022-10-17T03:34:03;22.09;;;12.21;;
60336;SDS011;46978;50.288;28.624;2022-10-17T03:35:05;20.50;;;12.25;;
60336;SDS011;46978;50.288;28.624;2022-10-17T03:36:09;20.75;;;11.98;;
60336;SDS011;46978;50.288;28.624;2022-10-17T03:37:12;24.01;;;12.46;;
60336;SDS011;46978;50.288;28.624;2022-10-17T03:38:14;21.73;;;12.65;;
60336;SDS011;46978;50.288;28.624;2022-10-17T03:39:16;20.73;;;12.49;;
60336;SDS011;46978;50.288;28.624;2022-10-17T03:40:18;23.87;;;13.00;;
60336;SDS011;46978;50.288;28.624;2022-10-17T03:41:20;22.59;;;13.13;;
60336;SDS011;46978;50.288;28.624;2022-10-17T03:42:22;21.89;;;12.61;;
60336;SDS011;46978;50.288;28.624;2022-10-17T03:43:24;22.73;;;13.07;;
60336;SDS011;46978;50.288;28.624;2022-10-17T03:44:26;22.76;;;12.36;;
60336;SDS011;46978;50.288;28.624;2022-10-17T03:45:27;20.32;;;12.79;;
60336;SDS011;46978;50.288;28.624;2022-10-17T03:46:30;19.69;;;11.74;;
60336;SDS011;46978;50.288;28.624;2022-10-17T03:47:32;19.21;;;12.37;;
60336;SDS011;46978;50.288;28.624;2022-10-17T03:48:34;19.59;;;12.90;;
60336;SDS011;46978;50.288;28.624;2022-10-17T03:49:36;21.55;;;12.41;;
60336;SDS011;46978;50.288;28.624;2022-10-17T03:50:37;21.91;;;12.02;;
60336;SDS011;46978;50.288;28.624;2022-10-17T03:51:39;23.21;;;12.82;;
60336;SDS011;46978;50.288;28.624;2022-10-17T03:52:41;22.01;;;12.29;;
60336;SDS011;46978;50.288;28.624;2022-10-17T03:53:44;20.89;;;13.02;;
60336;SDS011;46978;50.288;28.624;2022-10-17T03:54:46;20.09;;;12.31;;
60336;SDS011;46978;50.288;28.624;2022-10-17T03:55:49;19.90;;;12.99;;
60336;SDS011;46978;50.288;28.624;2022-10-17T03:56:51;23.24;;;14.00;;
60336;SDS011;46978;50.288;28.624;2022-10-17T03:57:53;21.73;;;13.41;;
60336;SDS011;46978;50.288;28.624;2022-10-17T03:58:55;20.39;;;12.91;;
60336;SDS011;46978;50.288;28.624;2022-10-17T03:59:56;22.48;;;12.77;;
60336;SDS011;46978;50.288;28.624;2022-10-17T04:01:02;22.36;;;13.35;;
60336;SDS011;46978;50.288;28.624;2022-10-17T04:02:03;22.63;;;13.79;;
60336;SDS011;46978;50.288;28.624;2022-10-17T04:03:05;22.64;;;13.59;;
60336;SDS011;46978;50.288;28.624;2022-10-17T04:04:07;22.40;;;12.04;;
60336;SDS011;46978;50.288;28.624;2022-10-17T04:05:10;20.43;;;12.96;;
60336;SDS011;46978;50.288;28.624;2022-10-17T04:06:12;23.17;;;13.04;;
60336;SDS011;46978;50.288;28.624;2022-10-17T04:07:13;22.72;;;13.37;;
60336;SDS011;46978;50.288;28.624;2022-10-17T04:08:15;21.39;;;12.44;;
60336;SDS011;46978;50.288;28.624;2022-10-17T04:09:17;22.35;;;13.43;;
60336;SDS011;46978;50.288;28.624;2022-10-17T04:10:19;21.59;;;13.19;;
60336;SDS011;46978;50.288;28.624;2022-10-17T04:11:21;22.80;;;12.61;;
60336;SDS011;46978;50.288;28.624;2022-10-17T04:12:24;20.45;;;13.30;;
60336;SDS011;46978;50.288;28.624;2022-10-17T04:13:26;22.37;;;12.91;;
60336;SDS011;46978;50.288;28.624;2022-10-17T04:14:28;22.55;;;13.15;;
60336;SDS011;46978;50.288;28.624;2022-10-17T04:15:30;23.42;;;13.61;;
60336;SDS011;46978;50.288;28.624;2022-10-17T04:16:31;21.96;;;12.73;;
60336;SDS011;46978;50.288;28.624;2022-10-17T04:17:33;23.09;;;13.85;;
60336;SDS011;46978;50.288;28.624;2022-10-17T04:18:35;19.86;;;13.13;;
60336;SDS011;46978;50.288;28.624;2022-10-17T04:19:36;22.81;;;13.11;;
60336;SDS011;46978;50.288;28.624;2022-10-17T04:20:38;21.43;;;13.12;;
60336;SDS011;46978;50.288;28.624;2022-10-17T04:21:40;17.63;;;12.41;;
60336;SDS011;46978;50.288;28.624;2022-10-17T04:22:42;19.59;;;12.67;;
60336;SDS011;46978;50.288;28.624;2022-10-17T04:23:43;23.36;;;12.84;;
60336;SDS011;46978;50.288;28.624;2022-10-17T04:24:45;19.80;;;12.25;;
60336;SDS011;46978;50.288;28.624;2022-10-17T04:25:47;19.52;;;12.12;;
60336;SDS011;46978;50.288;28.624;2022-10-17T04:26:49;23.00;;;13.55;;
60336;SDS011;46978;50.288;28.624;2022-10-17T04:27:51;22.02;;;12.07;;
60336;SDS011;46978;50.288;28.624;2022-10-17T04:28:53;23.52;;;13.15;;
60336;SDS011;46978;50.288;28.624;2022-10-17T04:29:55;21.55;;;12.89;;
60336;SDS011;46978;50.288;28.624;2022-10-17T04:31:07;23.30;;;12.97;;
60336;SDS011;46978;50.288;28.624;2022-10-17T04:32:11;22.63;;;13.03;;
60336;SDS011;46978;50.288;28.624;2022-10-17T04:33:13;22.39;;;11.89;;
60336;SDS011;46978;50.288;28.624;2022-10-17T04:34:14;19.56;;;12.16;;
60336;SDS011;46978;50.288;28.624;2022-10-17T04:35:16;21.72;;;12.77;;
60336;SDS011;46978;50.288;28.624;2022-10-17T04:36:18;19.85;;;11.73;;
60336;SDS011;46978;50.288;28.624;2022-10-17T04:37:20;22.35;;;12.71;;
60336;SDS011;46978;50.288;28.624;2022-10-17T04:38:22;21.04;;;12.40;;
60336;SDS011;46978;50.288;28.624;2022-10-17T04:39:24;25.33;;;13.30;;
60336;SDS011;46978;50.288;28.624;2022-10-17T04:40:26;23.89;;;12.47;;
60336;SDS011;46978;50.288;28.624;2022-10-17T04:41:27;22.49;;;12.01;;
60336;SDS011;46978;50.288;28.624;2022-10-17T04:42:29;21.29;;;12.49;;
60336;SDS011;46978;50.288;28.624;2022-10-17T04:43:31;19.28;;;12.81;;
60336;SDS011;46978;50.288;28.624;2022-10-17T04:44:35;19.89;;;12.34;;
60336;SDS011;46978;50.288;28.624;2022-10-17T04:45:37;19.16;;;12.43;;
60336;SDS011;46978;50.288;28.624;2022-10-17T04:46:39;20.72;;;12.11;;
60336;SDS011;46978;50.288;28.624;2022-10-17T04:47:40;21.99;;;13.31;;
60336;SDS011;46978;50.288;28.624;2022-10-17T04:48:42;19.87;;;11.90;;
60336;SDS011;46978;50.288;28.624;2022-10-17T04:49:44;23.37;;;12.25;;
60336;SDS011;46978;50.288;28.624;2022-10-17T04:50:58;21.80;;;12.49;;
60336;SDS011;46978;50.288;28.624;2022-10-17T04:52:02;19.81;;;11.76;;
60336;SDS011;46978;50.288;28.624;2022-10-17T04:53:04;18.97;;;12.07;;
60336;SDS011;46978;50.288;28.624;2022-10-17T04:54:05;20.05;;;12.01;;
60336;SDS011;46978;50.288;28.624;2022-10-17T04:55:07;20.87;;;12.49;;
60336;SDS011;46978;50.288;28.624;2022-10-17T04:56:14;18.41;;;11.84;;
60336;SDS011;46978;50.288;28.624;2022-10-17T04:57:18;20.41;;;12.69;;
60336;SDS011;46978;50.288;28.624;2022-10-17T04:58:20;24.47;;;12.59;;
60336;SDS011;46978;50.288;28.624;2022-10-17T04:59:24;19.36;;;11.99;;
60336;SDS011;46978;50.288;28.624;2022-10-17T05:00:26;21.29;;;12.79;;
60336;SDS011;46978;50.288;28.624;2022-10-17T05:01:28;19.47;;;11.44;;
60336;SDS011;46978;50.288;28.624;2022-10-17T05:02:29;19.25;;;11.49;;
60336;SDS011;46978;50.288;28.624;2022-10-17T05:03:31;16.88;;;11.48;;
60336;SDS011;46978;50.288;28.624;2022-10-17T05:04:34;21.34;;;12.06;;
60336;SDS011;46978;50.288;28.624;2022-10-17T05:05:39;20.94;;;12.10;;
60336;SDS011;46978;50.288;28.624;2022-10-17T05:06:42;23.19;;;13.06;;
60336;SDS011;46978;50.288;28.624;2022-10-17T05:07:43;18.24;;;11.74;;
60336;SDS011;46978;50.288;28.624;2022-10-17T05:08:45;22.72;;;11.93;;
60336;SDS011;46978;50.288;28.624;2022-10-17T05:09:48;20.35;;;12.31;;
60336;SDS011;46978;50.288;28.624;2022-10-17T05:10:49;18.69;;;11.97;;
60336;SDS011;46978;50.288;28.624;2022-10-17T05:11:51;19.41;;;11.92;;
60336;SDS011;46978;50.288;28.624;2022-10-17T05:12:53;19.26;;;12.23;;
60336;SDS011;46978;50.288;28.624;2022-10-17T05:13:56;20.43;;;11.64;;
60336;SDS011;46978;50.288;28.624;2022-10-17T05:14:59;18.34;;;11.90;;
60336;SDS011;46978;50.288;28.624;2022-10-17T05:16:01;19.63;;;11.26;;
60336;SDS011;46978;50.288;28.624;2022-10-17T05:17:03;19.40;;;11.48;;
60336;SDS011;46978;50.288;28.624;2022-10-17T05:18:05;17.97;;;11.29;;
60336;SDS011;46978;50.288;28.624;2022-10-17T05:19:07;22.20;;;11.24;;
60336;SDS011;46978;50.288;28.624;2022-10-17T05:20:10;20.85;;;11.77;;
60336;SDS011;46978;50.288;28.624;2022-10-17T05:21:12;18.74;;;11.54;;
60336;SDS011;46978;50.288;28.624;2022-10-17T05:22:14;21.16;;;11.51;;
60336;SDS011;46978;50.288;28.624;2022-10-17T05:23:16;19.11;;;12.49;;
60336;SDS011;46978;50.288;28.624;2022-10-17T05:24:17;18.97;;;11.39;;
60336;SDS011;46978;50.288;28.624;2022-10-17T05:25:19;23.22;;;12.31;;
60336;SDS011;46978;50.288;28.624;2022-10-17T05:26:22;18.79;;;10.70;;
60336;SDS011;46978;50.288;28.624;2022-10-17T05:27:25;18.20;;;11.09;;
60336;SDS011;46978;50.288;28.624;2022-10-17T05:28:26;18.05;;;11.01;;
60336;SDS011;46978;50.288;28.624;2022-10-17T05:29:28;18.27;;;11.33;;
60336;SDS011;46978;50.288;28.624;2022-10-17T05:30:30;17.50;;;10.09;;
60336;SDS011;46978;50.288;28.624;2022-10-17T05:31:31;18.11;;;11.13;;
60336;SDS011;46978;50.288;28.624;2022-10-17T05:32:33;17.79;;;10.54;;
60336;SDS011;46978;50.288;28.624;2022-10-17T05:33:35;19.03;;;11.03;;
60336;SDS011;46978;50.288;28.624;2022-10-17T05:34:38;19.71;;;11.37;;
60336;SDS011;46978;50.288;28.624;2022-10-17T05:35:40;18.70;;;11.06;;
60336;SDS011;46978;50.288;28.624;2022-10-17T05:36:42;18.25;;;11.21;;
60336;SDS011;46978;50.288;28.624;2022-10-17T05:37:43;17.40;;;10.88;;
60336;SDS011;46978;50.288;28.624;2022-10-17T05:38:48;17.92;;;10.69;;
60336;SDS011;46978;50.288;28.624;2022-10-17T05:39:51;21.20;;;11.61;;
60336;SDS011;46978;50.288;28.624;2022-10-17T05:40:56;20.26;;;10.85;;
60336;SDS011;46978;50.288;28.624;2022-10-17T05:41:59;17.72;;;10.82;;
60336;SDS011;46978;50.288;28.624;2022-10-17T05:43:01;17.75;;;10.45;;
60336;SDS011;46978;50.288;28.624;2022-10-17T05:44:02;18.07;;;10.77;;
60336;SDS011;46978;50.288;28.624;2022-10-17T05:45:05;19.69;;;11.08;;
60336;SDS011;46978;50.288;28.624;2022-10-17T05:46:08;20.47;;;11.04;;
60336;SDS011;46978;50.288;28.624;2022-10-17T05:47:10;16.61;;;10.39;;
60336;SDS011;46978;50.288;28.624;2022-10-17T05:48:13;17.91;;;10.79;;
60336;SDS011;46978;50.288;28.624;2022-10-17T05:49:14;18.66;;;10.68;;
60336;SDS011;46978;50.288;28.624;2022-10-17T05:50:17;18.29;;;10.99;;
60336;SDS011;46978;50.288;28.624;2022-10-17T05:51:19;19.33;;;10.53;;
60336;SDS011;46978;50.288;28.624;2022-10-17T05:52:21;19.13;;;10.81;;
60336;SDS011;46978;50.288;28.624;2022-10-17T05:53:22;15.81;;;10.41;;
60336;SDS011;46978;50.288;28.624;2022-10-17T05:54:24;17.24;;;10.05;;
60336;SDS011;46978;50.288;28.624;2022-10-17T05:55:26;18.32;;;10.93;;
60336;SDS011;46978;50.288;28.624;2022-10-17T05:56:28;17.05;;;10.32;;
60336;SDS011;46978;50.288;28.624;2022-10-17T05:57:30;15.73;;;10.17;;
60336;SDS011;46978;50.288;28.624;2022-10-17T05:58:32;17.07;;;10.25;;
60336;SDS011;46978;50.288;28.624;2022-10-17T05:59:34;15.21;;;10.15;;
60336;SDS011;46978;50.288;28.624;2022-10-17T06:00:35;16.23;;;10.17;;
60336;SDS011;46978;50.288;28.624;2022-10-17T06:01:37;18.30;;;10.70;;
60336;SDS011;46978;50.288;28.624;2022-10-17T06:02:39;15.23;;;9.96;;
60336;SDS011;46978;50.288;28.624;2022-10-17T06:03:41;16.85;;;9.63;;
60336;SDS011;46978;50.288;28.624;2022-10-17T06:04:42;15.47;;;9.57;;
60336;SDS011;46978;50.288;28.624;2022-10-17T06:05:44;18.19;;;9.38;;
60336;SDS011;46978;50.288;28.624;2022-10-17T06:06:46;15.11;;;9.81;;
60336;SDS011;46978;50.288;28.624;2022-10-17T06:07:48;16.60;;;10.02;;
60336;SDS011;46978;50.288;28.624;2022-10-17T06:08:49;16.34;;;9.72;;
60336;SDS011;46978;50.288;28.624;2022-10-17T06:09:51;17.68;;;10.14;;
60336;SDS011;46978;50.288;28.624;2022-10-17T06:10:53;14.96;;;9.59;;
60336;SDS011;46978;50.288;28.624;2022-10-17T06:11:55;15.33;;;9.80;;
60336;SDS011;46978;50.288;28.624;2022-10-17T06:12:56;18.03;;;10.37;;
60336;SDS011;46978;50.288;28.624;2022-10-17T06:13:58;18.19;;;9.67;;
60336;SDS011;46978;50.288;28.624;2022-10-17T06:15:01;18.45;;;9.75;;
60336;SDS011;46978;50.288;28.624;2022-10-17T06:16:03;16.95;;;9.63;;
60336;SDS011;46978;50.288;28.624;2022-10-17T06:17:05;20.28;;;10.77;;
60336;SDS011;46978;50.288;28.624;2022-10-17T06:18:06;14.21;;;9.29;;
60336;SDS011;46978;50.288;28.624;2022-10-17T06:19:08;14.61;;;9.36;;
60336;SDS011;46978;50.288;28.624;2022-10-17T06:20:10;16.20;;;10.01;;
60336;SDS011;46978;50.288;28.624;2022-10-17T06:21:13;18.66;;;9.70;;
60336;SDS011;46978;50.288;28.624;2022-10-17T06:22:17;16.20;;;9.92;;
60336;SDS011;46978;50.288;28.624;2022-10-17T06:23:19;15.58;;;9.46;;
60336;SDS011;46978;50.288;28.624;2022-10-17T06:24:20;18.17;;;9.89;;
60336;SDS011;46978;50.288;28.624;2022-10-17T06:25:22;17.60;;;9.45;;
60336;SDS011;46978;50.288;28.624;2022-10-17T06:26:24;16.55;;;9.57;;
60336;SDS011;46978;50.288;28.624;2022-10-17T06:27:26;17.62;;;9.95;;
60336;SDS011;46978;50.288;28.624;2022-10-17T06:28:28;13.24;;;9.14;;
60336;SDS011;46978;50.288;28.624;2022-10-17T06:29:30;14.83;;;8.80;;
60336;SDS011;46978;50.288;28.624;2022-10-17T06:30:32;18.05;;;9.33;;